sensor_id;sensor_type;location;lat;lon;timestamp;temperature;humidity
21637;DHT22;10980;49.596;6.142;2022-07-05T00:02:54;19.30;73.90
21637;DHT22;10980;49.596;6.142;2022-07-05T00:06:16;19.30;73.40
21637;DHT22;10980;49.596;6.142;2022-07-05T00:09:38;19.10;74.00
21637;DHT22;10980;49.596;6.142;2022-07-05T00:13:00;19.10;74.40
21637;DHT22;10980;49.596;6.142;2022-07-05T00:16:22;19.00;74.50
21637;DHT22;10980;49.596;6.142;2022-07-05T00:19:44;19.10;74.40
21637;DHT22;10980;49.596;6.142;2022-07-05T00:23:07;19.00;74.30
21637;DHT22;10980;49.596;6.142;2022-07-05T00:26:29;18.80;74.60
21637;DHT22;10980;49.596;6.142;2022-07-05T00:29:51;18.60;75.80
21637;DHT22;10980;49.596;6.142;2022-07-05T00:33:13;18.40;76.50
21637;DHT22;10980;49.596;6.142;2022-07-05T00:36:35;18.50;76.30
21637;DHT22;10980;49.596;6.142;2022-07-05T00:39:57;18.60;76.00
21637;DHT22;10980;49.596;6.142;2022-07-05T00:43:19;18.60;76.20
21637;DHT22;10980;49.596;6.142;2022-07-05T00:46:42;18.60;76.00
21637;DHT22;10980;49.596;6.142;2022-07-05T00:50:05;18.60;76.50
21637;DHT22;10980;49.596;6.142;2022-07-05T00:53:27;18.30;77.90
21637;DHT22;10980;49.596;6.142;2022-07-05T00:56:50;18.20;79.30
21637;DHT22;10980;49.596;6.142;2022-07-05T01:00:19;18.20;77.90
21637;DHT22;10980;49.596;6.142;2022-07-05T01:03:42;18.00;78.90
21637;DHT22;10980;49.596;6.142;2022-07-05T01:07:04;18.20;78.50
21637;DHT22;10980;49.596;6.142;2022-07-05T01:10:28;18.00;78.90
21637;DHT22;10980;49.596;6.142;2022-07-05T01:13:51;18.00;79.80
21637;DHT22;10980;49.596;6.142;2022-07-05T01:17:13;18.00;79.70
21637;DHT22;10980;49.596;6.142;2022-07-05T01:20:36;17.80;80.10
21637;DHT22;10980;49.596;6.142;2022-07-05T01:24:00;17.80;80.70
21637;DHT22;10980;49.596;6.142;2022-07-05T01:27:23;17.70;80.50
21637;DHT22;10980;49.596;6.142;2022-07-05T01:30:45;17.60;81.00
21637;DHT22;10980;49.596;6.142;2022-07-05T01:34:07;17.60;81.20
21637;DHT22;10980;49.596;6.142;2022-07-05T01:37:30;17.60;80.90
21637;DHT22;10980;49.596;6.142;2022-07-05T01:40:52;17.50;81.30
21637;DHT22;10980;49.596;6.142;2022-07-05T01:44:14;17.50;80.90
21637;DHT22;10980;49.596;6.142;2022-07-05T01:47:37;17.50;80.80
21637;DHT22;10980;49.596;6.142;2022-07-05T01:51:13;17.40;81.00
21637;DHT22;10980;49.596;6.142;2022-07-05T01:54:38;17.60;80.60
21637;DHT22;10980;49.596;6.142;2022-07-05T01:58:01;17.60;80.80
21637;DHT22;10980;49.596;6.142;2022-07-05T02:01:37;17.40;81.40
21637;DHT22;10980;49.596;6.142;2022-07-05T02:04:59;17.30;82.00
21637;DHT22;10980;49.596;6.142;2022-07-05T02:08:28;17.20;82.80
21637;DHT22;10980;49.596;6.142;2022-07-05T02:11:51;17.30;82.30
21637;DHT22;10980;49.596;6.142;2022-07-05T02:15:13;17.40;82.10
21637;DHT22;10980;49.596;6.142;2022-07-05T02:18:36;17.20;82.40
21637;DHT22;10980;49.596;6.142;2022-07-05T02:21:59;17.20;82.80
21637;DHT22;10980;49.596;6.142;2022-07-05T02:25:21;17.10;83.20
21637;DHT22;10980;49.596;6.142;2022-07-05T02:28:44;17.10;83.30
21637;DHT22;10980;49.596;6.142;2022-07-05T02:32:08;17.00;84.10
21637;DHT22;10980;49.596;6.142;2022-07-05T02:35:30;16.90;84.30
21637;DHT22;10980;49.596;6.142;2022-07-05T02:38:52;16.90;84.40
21637;DHT22;10980;49.596;6.142;2022-07-05T02:42:14;16.90;84.30
21637;DHT22;10980;49.596;6.142;2022-07-05T02:45:38;16.70;84.80
21637;DHT22;10980;49.596;6.142;2022-07-05T02:49:00;16.80;84.70
21637;DHT22;10980;49.596;6.142;2022-07-05T02:52:26;16.70;85.00
21637;DHT22;10980;49.596;6.142;2022-07-05T02:55:48;16.70;85.00
21637;DHT22;10980;49.596;6.142;2022-07-05T02:59:10;16.50;85.60
21637;DHT22;10980;49.596;6.142;2022-07-05T03:02:33;16.60;85.70
21637;DHT22;10980;49.596;6.142;2022-07-05T03:05:56;16.50;86.10
21637;DHT22;10980;49.596;6.142;2022-07-05T03:09:18;16.40;86.30
21637;DHT22;10980;49.596;6.142;2022-07-05T03:12:41;16.50;86.00
21637;DHT22;10980;49.596;6.142;2022-07-05T03:16:06;16.40;86.70
21637;DHT22;10980;49.596;6.142;2022-07-05T03:19:28;16.30;87.10
21637;DHT22;10980;49.596;6.142;2022-07-05T03:22:50;16.10;87.90
21637;DHT22;10980;49.596;6.142;2022-07-05T03:26:17;16.20;87.80
21637;DHT22;10980;49.596;6.142;2022-07-05T03:29:42;16.10;88.70
21637;DHT22;10980;49.596;6.142;2022-07-05T03:33:04;16.10;88.70
21637;DHT22;10980;49.596;6.142;2022-07-05T03:36:28;16.00;89.10
21637;DHT22;10980;49.596;6.142;2022-07-05T03:39:51;16.10;88.70
21637;DHT22;10980;49.596;6.142;2022-07-05T03:43:14;15.90;89.30
21637;DHT22;10980;49.596;6.142;2022-07-05T03:46:36;15.60;90.40
21637;DHT22;10980;49.596;6.142;2022-07-05T03:49:58;15.80;89.90
21637;DHT22;10980;49.596;6.142;2022-07-05T03:53:20;15.90;89.50
21637;DHT22;10980;49.596;6.142;2022-07-05T03:56:42;15.70;90.00
21637;DHT22;10980;49.596;6.142;2022-07-05T04:00:07;15.70;90.00
21637;DHT22;10980;49.596;6.142;2022-07-05T04:03:33;15.70;90.20
21637;DHT22;10980;49.596;6.142;2022-07-05T04:07:03;15.50;90.50
21637;DHT22;10980;49.596;6.142;2022-07-05T04:10:25;15.30;91.00
21637;DHT22;10980;49.596;6.142;2022-07-05T04:13:47;15.40;91.00
21637;DHT22;10980;49.596;6.142;2022-07-05T04:17:09;15.60;90.80
21637;DHT22;10980;49.596;6.142;2022-07-05T04:20:31;15.50;91.30
21637;DHT22;10980;49.596;6.142;2022-07-05T04:23:52;15.50;91.60
21637;DHT22;10980;49.596;6.142;2022-07-05T04:27:15;15.60;91.40
21637;DHT22;10980;49.596;6.142;2022-07-05T04:30:37;15.60;91.40
21637;DHT22;10980;49.596;6.142;2022-07-05T04:34:02;15.70;91.50
21637;DHT22;10980;49.596;6.142;2022-07-05T04:37:27;15.70;91.50
21637;DHT22;10980;49.596;6.142;2022-07-05T04:40:49;15.80;91.30
21637;DHT22;10980;49.596;6.142;2022-07-05T04:44:12;15.80;91.40
21637;DHT22;10980;49.596;6.142;2022-07-05T04:47:35;15.70;91.60
21637;DHT22;10980;49.596;6.142;2022-07-05T04:50:58;15.80;91.50
21637;DHT22;10980;49.596;6.142;2022-07-05T04:54:22;15.80;91.60
21637;DHT22;10980;49.596;6.142;2022-07-05T04:57:44;15.70;91.70
21637;DHT22;10980;49.596;6.142;2022-07-05T05:01:06;15.60;92.10
21637;DHT22;10980;49.596;6.142;2022-07-05T05:04:28;15.70;92.00
21637;DHT22;10980;49.596;6.142;2022-07-05T05:07:50;15.90;91.70
21637;DHT22;10980;49.596;6.142;2022-07-05T05:11:11;15.80;91.70
21637;DHT22;10980;49.596;6.142;2022-07-05T05:14:33;15.70;92.00
21637;DHT22;10980;49.596;6.142;2022-07-05T05:17:55;15.70;92.20
21637;DHT22;10980;49.596;6.142;2022-07-05T05:21:17;15.70;92.00
21637;DHT22;10980;49.596;6.142;2022-07-05T05:24:39;15.70;92.20
21637;DHT22;10980;49.596;6.142;2022-07-05T05:28:00;16.00;91.80
21637;DHT22;10980;49.596;6.142;2022-07-05T05:31:22;16.10;92.20
21637;DHT22;10980;49.596;6.142;2022-07-05T05:34:44;16.40;92.00
21637;DHT22;10980;49.596;6.142;2022-07-05T05:38:06;16.50;91.20
21637;DHT22;10980;49.596;6.142;2022-07-05T05:41:28;16.50;90.80
21637;DHT22;10980;49.596;6.142;2022-07-05T05:44:50;16.50;90.80
21637;DHT22;10980;49.596;6.142;2022-07-05T05:48:11;16.60;91.00
21637;DHT22;10980;49.596;6.142;2022-07-05T05:51:33;16.70;90.80
21637;DHT22;10980;49.596;6.142;2022-07-05T05:54:55;16.80;90.70
21637;DHT22;10980;49.596;6.142;2022-07-05T05:58:21;16.90;90.70
21637;DHT22;10980;49.596;6.142;2022-07-05T06:01:45;17.10;90.40
21637;DHT22;10980;49.596;6.142;2022-07-05T06:05:08;17.20;90.60
21637;DHT22;10980;49.596;6.142;2022-07-05T06:08:32;17.50;90.70
21637;DHT22;10980;49.596;6.142;2022-07-05T06:11:54;17.40;90.00
21637;DHT22;10980;49.596;6.142;2022-07-05T06:15:16;17.60;90.00
21637;DHT22;10980;49.596;6.142;2022-07-05T06:18:38;17.80;88.90
21637;DHT22;10980;49.596;6.142;2022-07-05T06:22:00;17.80;88.80
21637;DHT22;10980;49.596;6.142;2022-07-05T06:25:22;17.90;88.90
21637;DHT22;10980;49.596;6.142;2022-07-05T06:28:45;18.00;88.10
21637;DHT22;10980;49.596;6.142;2022-07-05T06:32:07;18.00;87.90
21637;DHT22;10980;49.596;6.142;2022-07-05T06:35:30;18.00;87.60
21637;DHT22;10980;49.596;6.142;2022-07-05T06:38:52;18.10;87.60
21637;DHT22;10980;49.596;6.142;2022-07-05T06:42:14;18.20;88.00
21637;DHT22;10980;49.596;6.142;2022-07-05T06:45:36;18.40;87.30
21637;DHT22;10980;49.596;6.142;2022-07-05T06:48:58;18.40;87.10
21637;DHT22;10980;49.596;6.142;2022-07-05T06:52:20;18.50;87.40
21637;DHT22;10980;49.596;6.142;2022-07-05T06:55:42;18.70;86.80
21637;DHT22;10980;49.596;6.142;2022-07-05T06:59:14;18.90;86.30
21637;DHT22;10980;49.596;6.142;2022-07-05T07:02:55;18.80;84.90
21637;DHT22;10980;49.596;6.142;2022-07-05T07:06:18;18.90;85.00
21637;DHT22;10980;49.596;6.142;2022-07-05T07:09:40;19.10;84.80
21637;DHT22;10980;49.596;6.142;2022-07-05T07:13:03;19.20;84.10
21637;DHT22;10980;49.596;6.142;2022-07-05T07:16:25;19.20;83.30
21637;DHT22;10980;49.596;6.142;2022-07-05T07:19:47;19.30;82.60
21637;DHT22;10980;49.596;6.142;2022-07-05T07:23:09;19.30;82.10
21637;DHT22;10980;49.596;6.142;2022-07-05T07:26:31;19.40;79.80
21637;DHT22;10980;49.596;6.142;2022-07-05T07:30:14;19.30;79.70
21637;DHT22;10980;49.596;6.142;2022-07-05T07:33:36;19.50;76.70
21637;DHT22;10980;49.596;6.142;2022-07-05T07:37:06;19.50;76.10
21637;DHT22;10980;49.596;6.142;2022-07-05T07:40:30;19.60;78.40
21637;DHT22;10980;49.596;6.142;2022-07-05T07:43:52;19.80;79.60
21637;DHT22;10980;49.596;6.142;2022-07-05T07:47:14;19.80;78.80
21637;DHT22;10980;49.596;6.142;2022-07-05T07:50:35;19.90;77.30
21637;DHT22;10980;49.596;6.142;2022-07-05T07:53:57;20.00;76.80
21637;DHT22;10980;49.596;6.142;2022-07-05T07:57:33;20.10;76.30
21637;DHT22;10980;49.596;6.142;2022-07-05T08:00:54;20.20;75.20
21637;DHT22;10980;49.596;6.142;2022-07-05T08:04:16;20.30;75.30
21637;DHT22;10980;49.596;6.142;2022-07-05T08:07:38;20.40;73.90
21637;DHT22;10980;49.596;6.142;2022-07-05T08:11:00;20.50;73.80
21637;DHT22;10980;49.596;6.142;2022-07-05T08:14:22;20.50;72.50
21637;DHT22;10980;49.596;6.142;2022-07-05T08:17:44;20.60;72.00
21637;DHT22;10980;49.596;6.142;2022-07-05T08:21:26;20.60;72.30
21637;DHT22;10980;49.596;6.142;2022-07-05T08:24:54;20.60;72.70
21637;DHT22;10980;49.596;6.142;2022-07-05T08:28:16;20.80;72.20
21637;DHT22;10980;49.596;6.142;2022-07-05T08:31:41;20.90;71.20
21637;DHT22;10980;49.596;6.142;2022-07-05T08:35:03;20.90;70.30
21637;DHT22;10980;49.596;6.142;2022-07-05T08:38:25;20.90;70.60
21637;DHT22;10980;49.596;6.142;2022-07-05T08:41:49;20.90;70.60
21637;DHT22;10980;49.596;6.142;2022-07-05T08:45:25;20.90;70.10
21637;DHT22;10980;49.596;6.142;2022-07-05T08:48:50;21.10;71.20
21637;DHT22;10980;49.596;6.142;2022-07-05T08:52:13;21.30;69.20
21637;DHT22;10980;49.596;6.142;2022-07-05T08:55:35;21.40;68.40
21637;DHT22;10980;49.596;6.142;2022-07-05T08:58:57;21.80;68.20
21637;DHT22;10980;49.596;6.142;2022-07-05T09:02:20;21.80;65.80
21637;DHT22;10980;49.596;6.142;2022-07-05T09:05:43;21.50;66.00
21637;DHT22;10980;49.596;6.142;2022-07-05T09:09:07;21.50;65.80
21637;DHT22;10980;49.596;6.142;2022-07-05T09:12:29;21.70;66.10
21637;DHT22;10980;49.596;6.142;2022-07-05T09:15:51;21.90;63.90
21637;DHT22;10980;49.596;6.142;2022-07-05T09:19:13;21.90;65.70
21637;DHT22;10980;49.596;6.142;2022-07-05T09:22:51;22.00;65.70
21637;DHT22;10980;49.596;6.142;2022-07-05T09:26:16;21.90;65.00
21637;DHT22;10980;49.596;6.142;2022-07-05T09:29:38;21.90;64.20
21637;DHT22;10980;49.596;6.142;2022-07-05T09:33:18;21.90;64.00
21637;DHT22;10980;49.596;6.142;2022-07-05T09:37:12;22.10;63.00
21637;DHT22;10980;49.596;6.142;2022-07-05T09:40:46;22.20;63.40
21637;DHT22;10980;49.596;6.142;2022-07-05T09:44:09;22.00;63.20
21637;DHT22;10980;49.596;6.142;2022-07-05T09:47:31;22.20;63.00
21637;DHT22;10980;49.596;6.142;2022-07-05T09:51:04;22.10;62.30
21637;DHT22;10980;49.596;6.142;2022-07-05T09:55:00;21.90;63.40
21637;DHT22;10980;49.596;6.142;2022-07-05T09:58:26;22.10;61.40
21637;DHT22;10980;49.596;6.142;2022-07-05T10:01:48;22.30;60.30
21637;DHT22;10980;49.596;6.142;2022-07-05T10:05:12;22.40;62.10
21637;DHT22;10980;49.596;6.142;2022-07-05T10:08:34;22.40;61.20
21637;DHT22;10980;49.596;6.142;2022-07-05T10:11:56;22.40;60.70
21637;DHT22;10980;49.596;6.142;2022-07-05T10:15:24;22.70;60.10
21637;DHT22;10980;49.596;6.142;2022-07-05T10:18:51;22.90;60.50
21637;DHT22;10980;49.596;6.142;2022-07-05T10:22:14;22.80;59.50
21637;DHT22;10980;49.596;6.142;2022-07-05T10:25:42;22.90;58.70
21637;DHT22;10980;49.596;6.142;2022-07-05T10:29:05;23.00;57.60
21637;DHT22;10980;49.596;6.142;2022-07-05T10:32:28;23.10;56.20
21637;DHT22;10980;49.596;6.142;2022-07-05T10:35:55;23.10;58.80
21637;DHT22;10980;49.596;6.142;2022-07-05T10:39:23;23.00;59.20
21637;DHT22;10980;49.596;6.142;2022-07-05T10:43:01;23.00;58.40
21637;DHT22;10980;49.596;6.142;2022-07-05T10:46:42;22.90;57.60
21637;DHT22;10980;49.596;6.142;2022-07-05T10:50:52;22.90;57.50
21637;DHT22;10980;49.596;6.142;2022-07-05T10:54:19;22.90;56.60
21637;DHT22;10980;49.596;6.142;2022-07-05T10:57:41;23.10;57.70
21637;DHT22;10980;49.596;6.142;2022-07-05T11:04:55;23.30;53.50
21637;DHT22;10980;49.596;6.142;2022-07-05T11:08:31;23.10;54.40
21637;DHT22;10980;49.596;6.142;2022-07-05T11:12:21;23.20;54.00
21637;DHT22;10980;49.596;6.142;2022-07-05T11:16:24;23.00;55.10
21637;DHT22;10980;49.596;6.142;2022-07-05T11:20:09;23.20;54.40
21637;DHT22;10980;49.596;6.142;2022-07-05T11:23:43;23.50;55.20
21637;DHT22;10980;49.596;6.142;2022-07-05T11:27:13;23.70;56.50
21637;DHT22;10980;49.596;6.142;2022-07-05T11:30:58;23.70;56.40
21637;DHT22;10980;49.596;6.142;2022-07-05T11:34:38;23.90;56.90
21637;DHT22;10980;49.596;6.142;2022-07-05T11:38:08;23.70;57.10
21637;DHT22;10980;49.596;6.142;2022-07-05T11:42:00;23.60;57.70
21637;DHT22;10980;49.596;6.142;2022-07-05T11:45:36;23.90;56.30
21637;DHT22;10980;49.596;6.142;2022-07-05T11:49:06;24.00;55.50
21637;DHT22;10980;49.596;6.142;2022-07-05T11:52:55;24.10;55.90
21637;DHT22;10980;49.596;6.142;2022-07-05T11:56:26;24.30;56.10
21637;DHT22;10980;49.596;6.142;2022-07-05T12:00:06;24.40;55.50
21637;DHT22;10980;49.596;6.142;2022-07-05T12:03:35;24.20;54.10
21637;DHT22;10980;49.596;6.142;2022-07-05T12:06:57;24.60;52.70
21637;DHT22;10980;49.596;6.142;2022-07-05T12:10:19;24.70;51.90
21637;DHT22;10980;49.596;6.142;2022-07-05T12:14:23;25.00;50.70
21637;DHT22;10980;49.596;6.142;2022-07-05T12:17:47;25.10;49.40
21637;DHT22;10980;49.596;6.142;2022-07-05T12:21:12;24.80;49.70
21637;DHT22;10980;49.596;6.142;2022-07-05T12:24:38;25.30;48.10
21637;DHT22;10980;49.596;6.142;2022-07-05T12:28:02;25.20;48.60
21637;DHT22;10980;49.596;6.142;2022-07-05T12:31:26;25.40;46.90
21637;DHT22;10980;49.596;6.142;2022-07-05T12:34:48;25.70;45.40
21637;DHT22;10980;49.596;6.142;2022-07-05T12:38:11;26.30;45.70
21637;DHT22;10980;49.596;6.142;2022-07-05T12:41:42;26.30;45.40
21637;DHT22;10980;49.596;6.142;2022-07-05T12:45:16;26.30;47.80
21637;DHT22;10980;49.596;6.142;2022-07-05T12:48:38;26.50;47.60
21637;DHT22;10980;49.596;6.142;2022-07-05T12:52:05;26.80;47.30
21637;DHT22;10980;49.596;6.142;2022-07-05T12:55:35;26.40;44.60
21637;DHT22;10980;49.596;6.142;2022-07-05T12:59:16;26.50;44.00
21637;DHT22;10980;49.596;6.142;2022-07-05T13:02:40;26.60;43.60
21637;DHT22;10980;49.596;6.142;2022-07-05T13:06:03;27.50;44.20
21637;DHT22;10980;49.596;6.142;2022-07-05T13:12:50;28.60;44.30
21637;DHT22;10980;49.596;6.142;2022-07-05T13:16:12;29.00;42.90
21637;DHT22;10980;49.596;6.142;2022-07-05T13:19:35;28.40;42.70
21637;DHT22;10980;49.596;6.142;2022-07-05T13:22:57;28.70;41.60
21637;DHT22;10980;49.596;6.142;2022-07-05T13:26:19;29.20;40.60
21637;DHT22;10980;49.596;6.142;2022-07-05T13:29:41;29.50;39.30
21637;DHT22;10980;49.596;6.142;2022-07-05T13:33:03;29.20;40.60
21637;DHT22;10980;49.596;6.142;2022-07-05T13:36:26;29.30;38.50
21637;DHT22;10980;49.596;6.142;2022-07-05T13:39:48;30.20;37.50
21637;DHT22;10980;49.596;6.142;2022-07-05T13:43:10;30.80;36.50
21637;DHT22;10980;49.596;6.142;2022-07-05T13:46:32;30.90;36.00
21637;DHT22;10980;49.596;6.142;2022-07-05T13:49:54;30.20;36.10
21637;DHT22;10980;49.596;6.142;2022-07-05T13:53:35;30.00;35.60
21637;DHT22;10980;49.596;6.142;2022-07-05T13:56:58;30.70;36.70
21637;DHT22;10980;49.596;6.142;2022-07-05T14:00:19;31.60;35.40
21637;DHT22;10980;49.596;6.142;2022-07-05T14:03:41;30.10;36.20
21637;DHT22;10980;49.596;6.142;2022-07-05T14:07:04;31.40;35.80
21637;DHT22;10980;49.596;6.142;2022-07-05T14:10:25;32.60;33.90
21637;DHT22;10980;49.596;6.142;2022-07-05T14:13:47;32.40;32.50
21637;DHT22;10980;49.596;6.142;2022-07-05T14:17:09;32.40;33.20
21637;DHT22;10980;49.596;6.142;2022-07-05T14:20:31;33.30;32.00
21637;DHT22;10980;49.596;6.142;2022-07-05T14:23:52;31.90;33.80
21637;DHT22;10980;49.596;6.142;2022-07-05T14:27:14;32.60;34.10
21637;DHT22;10980;49.596;6.142;2022-07-05T14:30:37;33.70;33.90
21637;DHT22;10980;49.596;6.142;2022-07-05T14:33:59;33.60;34.50
21637;DHT22;10980;49.596;6.142;2022-07-05T14:37:21;32.90;36.50
21637;DHT22;10980;49.596;6.142;2022-07-05T14:40:44;33.70;36.70
21637;DHT22;10980;49.596;6.142;2022-07-05T14:44:06;34.90;35.70
21637;DHT22;10980;49.596;6.142;2022-07-05T14:47:28;33.70;36.10
21637;DHT22;10980;49.596;6.142;2022-07-05T14:50:50;33.60;37.00
21637;DHT22;10980;49.596;6.142;2022-07-05T14:54:19;33.50;36.90
21637;DHT22;10980;49.596;6.142;2022-07-05T14:57:41;34.90;34.60
21637;DHT22;10980;49.596;6.142;2022-07-05T15:01:03;34.40;34.80
21637;DHT22;10980;49.596;6.142;2022-07-05T15:04:25;35.30;34.50
21637;DHT22;10980;49.596;6.142;2022-07-05T15:07:47;35.80;33.50
21637;DHT22;10980;49.596;6.142;2022-07-05T15:11:09;33.80;34.10
21637;DHT22;10980;49.596;6.142;2022-07-05T15:14:30;33.90;33.60
21637;DHT22;10980;49.596;6.142;2022-07-05T15:17:52;34.90;33.60
21637;DHT22;10980;49.596;6.142;2022-07-05T15:21:14;35.80;31.90
21637;DHT22;10980;49.596;6.142;2022-07-05T15:24:36;35.60;31.90
21637;DHT22;10980;49.596;6.142;2022-07-05T15:27:58;34.70;34.30
21637;DHT22;10980;49.596;6.142;2022-07-05T15:31:20;35.10;33.60
21637;DHT22;10980;49.596;6.142;2022-07-05T15:34:42;35.80;32.50
21637;DHT22;10980;49.596;6.142;2022-07-05T15:38:04;36.10;32.60
21637;DHT22;10980;49.596;6.142;2022-07-05T15:41:26;36.00;31.20
21637;DHT22;10980;49.596;6.142;2022-07-05T15:44:48;34.60;32.40
21637;DHT22;10980;49.596;6.142;2022-07-05T15:48:20;36.30;31.70
21637;DHT22;10980;49.596;6.142;2022-07-05T15:51:43;37.10;31.10
21637;DHT22;10980;49.596;6.142;2022-07-05T15:55:05;38.00;31.50
21637;DHT22;10980;49.596;6.142;2022-07-05T15:58:29;38.70;29.80
21637;DHT22;10980;49.596;6.142;2022-07-05T16:01:51;37.80;31.20
21637;DHT22;10980;49.596;6.142;2022-07-05T16:05:13;36.80;31.70
21637;DHT22;10980;49.596;6.142;2022-07-05T16:08:46;36.80;32.20
21637;DHT22;10980;49.596;6.142;2022-07-05T16:12:21;37.00;32.10
21637;DHT22;10980;49.596;6.142;2022-07-05T16:15:43;37.40;32.20
21637;DHT22;10980;49.596;6.142;2022-07-05T16:19:23;37.30;31.90
21637;DHT22;10980;49.596;6.142;2022-07-05T16:22:45;35.80;33.50
21637;DHT22;10980;49.596;6.142;2022-07-05T16:26:10;34.70;34.60
21637;DHT22;10980;49.596;6.142;2022-07-05T16:29:32;34.30;35.90
21637;DHT22;10980;49.596;6.142;2022-07-05T16:32:54;32.80;36.50
21637;DHT22;10980;49.596;6.142;2022-07-05T16:36:19;32.90;38.00
21637;DHT22;10980;49.596;6.142;2022-07-05T16:39:41;34.70;34.90
21637;DHT22;10980;49.596;6.142;2022-07-05T16:43:04;33.80;34.90
21637;DHT22;10980;49.596;6.142;2022-07-05T16:46:26;33.60;36.30
21637;DHT22;10980;49.596;6.142;2022-07-05T16:49:48;35.10;33.70
21637;DHT22;10980;49.596;6.142;2022-07-05T16:53:10;34.90;33.60
21637;DHT22;10980;49.596;6.142;2022-07-05T16:56:32;33.80;34.80
21637;DHT22;10980;49.596;6.142;2022-07-05T16:59:54;33.90;34.10
21637;DHT22;10980;49.596;6.142;2022-07-05T17:03:15;35.20;32.90
21637;DHT22;10980;49.596;6.142;2022-07-05T17:06:38;36.40;31.30
21637;DHT22;10980;49.596;6.142;2022-07-05T17:09:59;35.10;33.10
21637;DHT22;10980;49.596;6.142;2022-07-05T17:13:21;34.30;34.70
21637;DHT22;10980;49.596;6.142;2022-07-05T17:16:44;35.00;34.40
21637;DHT22;10980;49.596;6.142;2022-07-05T17:20:06;36.10;31.50
21637;DHT22;10980;49.596;6.142;2022-07-05T17:23:28;35.30;31.60
21637;DHT22;10980;49.596;6.142;2022-07-05T17:26:49;36.80;32.30
21637;DHT22;10980;49.596;6.142;2022-07-05T17:30:11;37.00;30.70
21637;DHT22;10980;49.596;6.142;2022-07-05T17:33:34;35.60;32.70
21637;DHT22;10980;49.596;6.142;2022-07-05T17:36:56;35.70;31.60
21637;DHT22;10980;49.596;6.142;2022-07-05T17:40:19;32.10;35.60
21637;DHT22;10980;49.596;6.142;2022-07-05T17:43:42;30.80;39.00
21637;DHT22;10980;49.596;6.142;2022-07-05T17:47:07;30.60;40.00
21637;DHT22;10980;49.596;6.142;2022-07-05T17:50:30;30.20;39.30
21637;DHT22;10980;49.596;6.142;2022-07-05T17:54:01;30.10;39.90
21637;DHT22;10980;49.596;6.142;2022-07-05T17:57:23;29.40;40.90
21637;DHT22;10980;49.596;6.142;2022-07-05T18:00:45;29.20;40.50
21637;DHT22;10980;49.596;6.142;2022-07-05T18:04:08;29.00;41.40
21637;DHT22;10980;49.596;6.142;2022-07-05T18:07:30;28.70;43.30
21637;DHT22;10980;49.596;6.142;2022-07-05T18:10:51;28.40;42.90
21637;DHT22;10980;49.596;6.142;2022-07-05T18:14:13;28.30;42.90
21637;DHT22;10980;49.596;6.142;2022-07-05T18:17:35;27.80;43.50
21637;DHT22;10980;49.596;6.142;2022-07-05T18:20:58;27.70;44.70
21637;DHT22;10980;49.596;6.142;2022-07-05T18:24:21;27.40;43.90
21637;DHT22;10980;49.596;6.142;2022-07-05T18:27:43;27.30;44.70
21637;DHT22;10980;49.596;6.142;2022-07-05T18:31:04;27.20;46.10
21637;DHT22;10980;49.596;6.142;2022-07-05T18:34:27;27.40;45.50
21637;DHT22;10980;49.596;6.142;2022-07-05T18:37:48;27.30;45.10
21637;DHT22;10980;49.596;6.142;2022-07-05T18:41:10;27.20;45.90
21637;DHT22;10980;49.596;6.142;2022-07-05T18:44:32;26.90;46.10
21637;DHT22;10980;49.596;6.142;2022-07-05T18:47:53;27.00;45.20
21637;DHT22;10980;49.596;6.142;2022-07-05T18:51:17;27.20;46.10
21637;DHT22;10980;49.596;6.142;2022-07-05T18:54:42;27.10;47.20
21637;DHT22;10980;49.596;6.142;2022-07-05T18:58:04;27.00;47.50
21637;DHT22;10980;49.596;6.142;2022-07-05T19:01:26;27.00;46.00
21637;DHT22;10980;49.596;6.142;2022-07-05T19:04:48;26.90;48.00
21637;DHT22;10980;49.596;6.142;2022-07-05T19:08:11;26.70;45.80
21637;DHT22;10980;49.596;6.142;2022-07-05T19:11:51;26.60;46.10
21637;DHT22;10980;49.596;6.142;2022-07-05T19:15:33;26.50;46.20
21637;DHT22;10980;49.596;6.142;2022-07-05T19:18:55;26.60;46.10
21637;DHT22;10980;49.596;6.142;2022-07-05T19:22:17;26.30;46.70
21637;DHT22;10980;49.596;6.142;2022-07-05T19:25:39;26.20;47.00
21637;DHT22;10980;49.596;6.142;2022-07-05T19:29:00;25.40;48.60
21637;DHT22;10980;49.596;6.142;2022-07-05T19:32:23;25.90;48.00
21637;DHT22;10980;49.596;6.142;2022-07-05T19:35:45;25.50;48.70
21637;DHT22;10980;49.596;6.142;2022-07-05T19:39:07;25.40;48.80
21637;DHT22;10980;49.596;6.142;2022-07-05T19:42:28;25.30;49.20
21637;DHT22;10980;49.596;6.142;2022-07-05T19:45:50;25.10;49.60
21637;DHT22;10980;49.596;6.142;2022-07-05T19:49:12;25.30;49.20
21637;DHT22;10980;49.596;6.142;2022-07-05T19:52:34;25.00;49.90
21637;DHT22;10980;49.596;6.142;2022-07-05T19:56:00;25.10;50.00
21637;DHT22;10980;49.596;6.142;2022-07-05T19:59:25;24.90;50.20
21637;DHT22;10980;49.596;6.142;2022-07-05T20:02:47;25.10;49.70
21637;DHT22;10980;49.596;6.142;2022-07-05T20:06:09;24.90;50.20
21637;DHT22;10980;49.596;6.142;2022-07-05T20:09:31;24.80;50.90
21637;DHT22;10980;49.596;6.142;2022-07-05T20:12:53;24.40;51.60
21637;DHT22;10980;49.596;6.142;2022-07-05T20:16:15;23.70;54.70
21637;DHT22;10980;49.596;6.142;2022-07-05T20:19:37;23.70;55.50
21637;DHT22;10980;49.596;6.142;2022-07-05T20:22:59;23.40;56.40
21637;DHT22;10980;49.596;6.142;2022-07-05T20:26:21;23.00;57.80
21637;DHT22;10980;49.596;6.142;2022-07-05T20:29:45;22.80;59.30
21637;DHT22;10980;49.596;6.142;2022-07-05T20:33:07;23.10;59.30
21637;DHT22;10980;49.596;6.142;2022-07-05T20:36:31;22.80;60.30
21637;DHT22;10980;49.596;6.142;2022-07-05T20:39:53;22.60;61.40
21637;DHT22;10980;49.596;6.142;2022-07-05T20:43:16;22.70;61.60
21637;DHT22;10980;49.596;6.142;2022-07-05T20:46:39;22.70;61.90
21637;DHT22;10980;49.596;6.142;2022-07-05T20:50:01;22.50;62.90
21637;DHT22;10980;49.596;6.142;2022-07-05T20:53:23;22.40;63.80
21637;DHT22;10980;49.596;6.142;2022-07-05T20:56:48;22.40;63.80
21637;DHT22;10980;49.596;6.142;2022-07-05T21:00:10;22.20;64.80
21637;DHT22;10980;49.596;6.142;2022-07-05T21:03:32;21.70;66.80
21637;DHT22;10980;49.596;6.142;2022-07-05T21:06:54;21.70;66.70
21637;DHT22;10980;49.596;6.142;2022-07-05T21:10:16;21.50;67.00
21637;DHT22;10980;49.596;6.142;2022-07-05T21:13:38;21.40;67.90
21637;DHT22;10980;49.596;6.142;2022-07-05T21:17:01;21.60;67.00
21637;DHT22;10980;49.596;6.142;2022-07-05T21:20:26;21.50;67.50
21637;DHT22;10980;49.596;6.142;2022-07-05T21:23:48;21.30;68.20
21637;DHT22;10980;49.596;6.142;2022-07-05T21:27:10;21.50;67.80
21637;DHT22;10980;49.596;6.142;2022-07-05T21:30:32;21.20;68.40
21637;DHT22;10980;49.596;6.142;2022-07-05T21:33:54;21.30;68.30
21637;DHT22;10980;49.596;6.142;2022-07-05T21:37:16;21.00;69.60
21637;DHT22;10980;49.596;6.142;2022-07-05T21:40:38;21.00;69.80